sensor_id;sensor_type;location;lat;lon;timestamp;P1;durP1;ratioP1;P2;durP2;ratioP2
29728;SDS011;20055;51.498;11.960;2022-12-10T00:01:13;67.90;;;25.27;;
29728;SDS011;20055;51.498;11.960;2022-12-10T00:03:41;71.38;;;25.33;;
29728;SDS011;20055;51.498;11.960;2022-12-10T00:06:09;65.13;;;24.35;;
29728;SDS011;20055;51.498;11.960;2022-12-10T00:08:36;67.65;;;24.27;;
29728;SDS011;20055;51.498;11.960;2022-12-10T00:11:03;62.72;;;24.92;;
29728;SDS011;20055;51.498;11.960;2022-12-10T00:13:30;66.07;;;23.23;;
29728;SDS011;20055;51.498;11.960;2022-12-10T00:16:00;69.68;;;25.50;;
29728;SDS011;20055;51.498;11.960;2022-12-10T00:18:27;60.75;;;23.98;;
29728;SDS011;20055;51.498;11.960;2022-12-10T00:20:54;63.25;;;24.65;;
29728;SDS011;20055;51.498;11.960;2022-12-10T00:23:20;63.17;;;24.15;;
29728;SDS011;20055;51.498;11.960;2022-12-10T00:25:47;65.13;;;24.73;;
29728;SDS011;20055;51.498;11.960;2022-12-10T00:28:14;66.03;;;23.60;;
29728;SDS011;20055;51.498;11.960;2022-12-10T00:30:40;62.40;;;22.70;;
29728;SDS011;20055;51.498;11.960;2022-12-10T00:33:07;64.70;;;23.63;;
29728;SDS011;20055;51.498;11.960;2022-12-10T00:35:37;73.88;;;25.58;;
29728;SDS011;20055;51.498;11.960;2022-12-10T00:38:03;69.28;;;26.02;;
29728;SDS011;20055;51.498;11.960;2022-12-10T00:40:30;60.65;;;21.88;;
29728;SDS011;20055;51.498;11.960;2022-12-10T00:42:56;72.88;;;25.45;;
29728;SDS011;20055;51.498;11.960;2022-12-10T00:45:23;65.57;;;24.90;;
29728;SDS011;20055;51.498;11.960;2022-12-10T00:47:49;59.63;;;23.00;;
29728;SDS011;20055;51.498;11.960;2022-12-10T00:50:16;59.47;;;23.25;;
29728;SDS011;20055;51.498;11.960;2022-12-10T00:52:42;66.75;;;25.17;;
29728;SDS011;20055;51.498;11.960;2022-12-10T00:55:09;64.00;;;23.23;;
29728;SDS011;20055;51.498;11.960;2022-12-10T00:57:35;67.97;;;26.23;;
29728;SDS011;20055;51.498;11.960;2022-12-10T01:00:02;63.22;;;23.80;;
29728;SDS011;20055;51.498;11.960;2022-12-10T01:02:29;59.92;;;23.13;;
29728;SDS011;20055;51.498;11.960;2022-12-10T01:04:56;63.45;;;24.00;;
29728;SDS011;20055;51.498;11.960;2022-12-10T01:07:23;58.38;;;24.13;;
29728;SDS011;20055;51.498;11.960;2022-12-10T01:09:50;59.22;;;25.48;;
29728;SDS011;20055;51.498;11.960;2022-12-10T01:12:16;60.25;;;25.85;;
29728;SDS011;20055;51.498;11.960;2022-12-10T01:14:43;71.28;;;25.05;;
29728;SDS011;20055;51.498;11.960;2022-12-10T01:17:10;65.28;;;24.63;;
29728;SDS011;20055;51.498;11.960;2022-12-10T01:19:36;64.30;;;24.02;;
29728;SDS011;20055;51.498;11.960;2022-12-10T01:22:03;70.90;;;26.45;;
29728;SDS011;20055;51.498;11.960;2022-12-10T01:24:30;64.40;;;23.27;;
29728;SDS011;20055;51.498;11.960;2022-12-10T01:26:56;66.22;;;25.75;;
29728;SDS011;20055;51.498;11.960;2022-12-10T01:29:23;62.15;;;25.38;;
29728;SDS011;20055;51.498;11.960;2022-12-10T01:31:51;66.80;;;25.42;;
29728;SDS011;20055;51.498;11.960;2022-12-10T01:34:17;66.53;;;26.35;;
29728;SDS011;20055;51.498;11.960;2022-12-10T01:36:45;75.90;;;28.63;;
29728;SDS011;20055;51.498;11.960;2022-12-10T01:39:13;73.00;;;26.80;;
29728;SDS011;20055;51.498;11.960;2022-12-10T01:46:43;77.07;;;25.25;;
29728;SDS011;20055;51.498;11.960;2022-12-10T01:49:11;73.35;;;28.52;;
29728;SDS011;20055;51.498;11.960;2022-12-10T01:51:39;73.35;;;27.23;;
29728;SDS011;20055;51.498;11.960;2022-12-10T01:54:09;68.13;;;26.23;;
29728;SDS011;20055;51.498;11.960;2022-12-10T01:56:38;67.55;;;26.60;;
29728;SDS011;20055;51.498;11.960;2022-12-10T01:59:07;67.22;;;25.92;;
29728;SDS011;20055;51.498;11.960;2022-12-10T02:06:42;71.45;;;27.30;;
29728;SDS011;20055;51.498;11.960;2022-12-10T02:09:45;71.32;;;27.38;;
29728;SDS011;20055;51.498;11.960;2022-12-10T02:12:23;73.25;;;28.67;;
29728;SDS011;20055;51.498;11.960;2022-12-10T02:14:56;69.75;;;28.02;;
29728;SDS011;20055;51.498;11.960;2022-12-10T02:17:34;72.28;;;28.10;;
29728;SDS011;20055;51.498;11.960;2022-12-10T02:20:05;81.07;;;29.67;;
29728;SDS011;20055;51.498;11.960;2022-12-10T02:22:40;78.60;;;28.52;;
29728;SDS011;20055;51.498;11.960;2022-12-10T02:25:08;75.38;;;28.40;;
29728;SDS011;20055;51.498;11.960;2022-12-10T02:30:25;73.43;;;26.15;;
29728;SDS011;20055;51.498;11.960;2022-12-10T02:32:51;62.30;;;24.63;;
29728;SDS011;20055;51.498;11.960;2022-12-10T02:35:21;69.07;;;25.52;;
29728;SDS011;20055;51.498;11.960;2022-12-10T02:37:50;69.30;;;27.35;;
29728;SDS011;20055;51.498;11.960;2022-12-10T02:40:19;62.03;;;24.27;;
29728;SDS011;20055;51.498;11.960;2022-12-10T02:42:50;62.08;;;25.63;;
29728;SDS011;20055;51.498;11.960;2022-12-10T02:45:20;60.08;;;24.85;;
29728;SDS011;20055;51.498;11.960;2022-12-10T02:47:49;63.17;;;26.27;;
29728;SDS011;20055;51.498;11.960;2022-12-10T02:50:17;59.72;;;24.70;;
29728;SDS011;20055;51.498;11.960;2022-12-10T02:52:48;63.10;;;26.60;;
29728;SDS011;20055;51.498;11.960;2022-12-10T02:55:15;58.08;;;23.50;;
29728;SDS011;20055;51.498;11.960;2022-12-10T03:00:16;61.80;;;25.83;;
29728;SDS011;20055;51.498;11.960;2022-12-10T03:08:34;76.05;;;27.85;;
29728;SDS011;20055;51.498;11.960;2022-12-10T03:13:34;80.00;;;29.67;;
29728;SDS011;20055;51.498;11.960;2022-12-10T03:16:02;83.30;;;30.90;;
29728;SDS011;20055;51.498;11.960;2022-12-10T03:18:30;73.63;;;28.85;;
29728;SDS011;20055;51.498;11.960;2022-12-10T03:20:58;73.95;;;28.40;;
29728;SDS011;20055;51.498;11.960;2022-12-10T03:23:30;82.88;;;28.88;;
29728;SDS011;20055;51.498;11.960;2022-12-10T03:25:58;81.88;;;30.92;;
29728;SDS011;20055;51.498;11.960;2022-12-10T03:28:26;75.72;;;28.50;;
29728;SDS011;20055;51.498;11.960;2022-12-10T03:30:53;78.75;;;27.08;;
29728;SDS011;20055;51.498;11.960;2022-12-10T03:33:20;72.72;;;25.95;;
29728;SDS011;20055;51.498;11.960;2022-12-10T03:35:46;64.90;;;26.27;;
29728;SDS011;20055;51.498;11.960;2022-12-10T03:38:13;66.88;;;26.25;;
29728;SDS011;20055;51.498;11.960;2022-12-10T03:40:41;60.78;;;24.70;;
29728;SDS011;20055;51.498;11.960;2022-12-10T03:43:08;61.97;;;25.80;;
29728;SDS011;20055;51.498;11.960;2022-12-10T03:45:34;65.68;;;27.77;;
29728;SDS011;20055;51.498;11.960;2022-12-10T03:48:01;74.95;;;27.13;;
29728;SDS011;20055;51.498;11.960;2022-12-10T03:50:27;75.15;;;28.65;;
29728;SDS011;20055;51.498;11.960;2022-12-10T03:52:54;67.68;;;26.98;;
29728;SDS011;20055;51.498;11.960;2022-12-10T03:55:20;80.85;;;29.83;;
29728;SDS011;20055;51.498;11.960;2022-12-10T03:57:47;75.35;;;28.92;;
29728;SDS011;20055;51.498;11.960;2022-12-10T04:00:14;79.90;;;28.92;;
29728;SDS011;20055;51.498;11.960;2022-12-10T04:02:40;72.65;;;26.52;;
29728;SDS011;20055;51.498;11.960;2022-12-10T04:05:07;78.82;;;26.38;;
29728;SDS011;20055;51.498;11.960;2022-12-10T04:07:34;87.22;;;29.35;;
29728;SDS011;20055;51.498;11.960;2022-12-10T04:10:01;86.60;;;29.20;;
29728;SDS011;20055;51.498;11.960;2022-12-10T04:12:27;78.90;;;28.08;;
29728;SDS011;20055;51.498;11.960;2022-12-10T04:14:54;81.57;;;29.52;;
29728;SDS011;20055;51.498;11.960;2022-12-10T04:17:40;82.68;;;28.67;;
29728;SDS011;20055;51.498;11.960;2022-12-10T04:20:06;86.63;;;29.38;;
29728;SDS011;20055;51.498;11.960;2022-12-10T04:22:53;83.80;;;28.50;;
29728;SDS011;20055;51.498;11.960;2022-12-10T04:25:38;81.93;;;28.55;;
29728;SDS011;20055;51.498;11.960;2022-12-10T04:28:24;77.18;;;28.50;;
29728;SDS011;20055;51.498;11.960;2022-12-10T04:30:50;84.45;;;30.00;;
29728;SDS011;20055;51.498;11.960;2022-12-10T04:33:17;81.88;;;30.08;;
29728;SDS011;20055;51.498;11.960;2022-12-10T04:35:43;90.15;;;29.67;;
29728;SDS011;20055;51.498;11.960;2022-12-10T04:38:10;92.93;;;30.48;;
29728;SDS011;20055;51.498;11.960;2022-12-10T04:40:37;85.93;;;30.35;;
29728;SDS011;20055;51.498;11.960;2022-12-10T04:43:03;89.00;;;29.35;;
29728;SDS011;20055;51.498;11.960;2022-12-10T04:45:30;87.80;;;30.02;;
29728;SDS011;20055;51.498;11.960;2022-12-10T04:47:56;79.13;;;29.80;;
29728;SDS011;20055;51.498;11.960;2022-12-10T04:50:23;83.20;;;28.92;;
29728;SDS011;20055;51.498;11.960;2022-12-10T04:52:49;90.30;;;29.02;;
29728;SDS011;20055;51.498;11.960;2022-12-10T04:55:16;97.45;;;32.15;;
29728;SDS011;20055;51.498;11.960;2022-12-10T04:57:42;82.00;;;27.98;;
29728;SDS011;20055;51.498;11.960;2022-12-10T05:00:09;81.35;;;27.20;;
29728;SDS011;20055;51.498;11.960;2022-12-10T05:02:36;81.65;;;26.73;;
29728;SDS011;20055;51.498;11.960;2022-12-10T05:05:03;74.50;;;27.10;;
29728;SDS011;20055;51.498;11.960;2022-12-10T05:07:29;71.32;;;26.88;;
29728;SDS011;20055;51.498;11.960;2022-12-10T05:09:56;83.85;;;27.55;;
29728;SDS011;20055;51.498;11.960;2022-12-10T05:12:22;81.43;;;28.95;;
29728;SDS011;20055;51.498;11.960;2022-12-10T05:14:49;85.35;;;28.23;;
29728;SDS011;20055;51.498;11.960;2022-12-10T05:17:15;87.32;;;27.95;;
29728;SDS011;20055;51.498;11.960;2022-12-10T05:19:42;79.05;;;29.15;;
29728;SDS011;20055;51.498;11.960;2022-12-10T05:22:08;92.18;;;30.77;;
29728;SDS011;20055;51.498;11.960;2022-12-10T05:24:53;92.13;;;29.90;;
29728;SDS011;20055;51.498;11.960;2022-12-10T05:27:20;99.25;;;31.25;;
29728;SDS011;20055;51.498;11.960;2022-12-10T05:29:47;93.03;;;31.25;;
29728;SDS011;20055;51.498;11.960;2022-12-10T05:32:13;88.30;;;31.58;;
29728;SDS011;20055;51.498;11.960;2022-12-10T05:34:40;84.13;;;29.52;;
29728;SDS011;20055;51.498;11.960;2022-12-10T05:37:06;83.72;;;28.50;;
29728;SDS011;20055;51.498;11.960;2022-12-10T05:39:33;96.00;;;31.30;;
29728;SDS011;20055;51.498;11.960;2022-12-10T05:41:59;97.57;;;33.03;;
29728;SDS011;20055;51.498;11.960;2022-12-10T05:44:26;86.05;;;29.48;;
29728;SDS011;20055;51.498;11.960;2022-12-10T05:46:52;90.50;;;29.20;;
29728;SDS011;20055;51.498;11.960;2022-12-10T05:49:19;97.78;;;31.83;;
29728;SDS011;20055;51.498;11.960;2022-12-10T05:51:45;90.50;;;29.55;;
29728;SDS011;20055;51.498;11.960;2022-12-10T05:54:12;94.53;;;32.25;;
29728;SDS011;20055;51.498;11.960;2022-12-10T05:56:39;101.93;;;33.03;;
29728;SDS011;20055;51.498;11.960;2022-12-10T05:59:05;100.07;;;32.25;;
29728;SDS011;20055;51.498;11.960;2022-12-10T06:01:33;91.75;;;31.25;;
29728;SDS011;20055;51.498;11.960;2022-12-10T06:04:00;101.45;;;33.55;;
29728;SDS011;20055;51.498;11.960;2022-12-10T06:06:30;94.00;;;31.48;;
29728;SDS011;20055;51.498;11.960;2022-12-10T06:08:57;99.40;;;33.92;;
29728;SDS011;20055;51.498;11.960;2022-12-10T06:11:24;96.13;;;32.70;;
29728;SDS011;20055;51.498;11.960;2022-12-10T06:13:52;106.60;;;33.08;;
29728;SDS011;20055;51.498;11.960;2022-12-10T06:16:20;96.00;;;31.85;;
29728;SDS011;20055;51.498;11.960;2022-12-10T06:18:47;96.93;;;30.58;;
29728;SDS011;20055;51.498;11.960;2022-12-10T06:21:15;102.97;;;31.52;;
29728;SDS011;20055;51.498;11.960;2022-12-10T06:23:42;93.95;;;30.55;;
29728;SDS011;20055;51.498;11.960;2022-12-10T06:26:10;94.72;;;30.90;;
29728;SDS011;20055;51.498;11.960;2022-12-10T06:28:37;87.57;;;31.33;;
29728;SDS011;20055;51.498;11.960;2022-12-10T06:31:04;90.63;;;32.35;;
29728;SDS011;20055;51.498;11.960;2022-12-10T06:33:30;90.30;;;29.92;;
29728;SDS011;20055;51.498;11.960;2022-12-10T06:35:57;89.30;;;28.65;;
29728;SDS011;20055;51.498;11.960;2022-12-10T06:38:24;91.93;;;32.08;;
29728;SDS011;20055;51.498;11.960;2022-12-10T06:40:51;93.45;;;30.90;;
29728;SDS011;20055;51.498;11.960;2022-12-10T06:43:18;90.47;;;29.73;;
29728;SDS011;20055;51.498;11.960;2022-12-10T06:45:45;92.97;;;31.25;;
29728;SDS011;20055;51.498;11.960;2022-12-10T06:48:11;103.88;;;31.88;;
29728;SDS011;20055;51.498;11.960;2022-12-10T06:50:38;87.60;;;29.95;;
29728;SDS011;20055;51.498;11.960;2022-12-10T06:53:05;87.43;;;27.80;;
29728;SDS011;20055;51.498;11.960;2022-12-10T06:55:31;90.05;;;28.83;;
29728;SDS011;20055;51.498;11.960;2022-12-10T06:57:58;89.75;;;30.05;;
29728;SDS011;20055;51.498;11.960;2022-12-10T07:00:24;78.05;;;28.55;;
29728;SDS011;20055;51.498;11.960;2022-12-10T07:02:51;79.32;;;27.33;;
29728;SDS011;20055;51.498;11.960;2022-12-10T07:05:18;83.00;;;29.65;;
29728;SDS011;20055;51.498;11.960;2022-12-10T07:07:44;82.43;;;28.02;;
29728;SDS011;20055;51.498;11.960;2022-12-10T07:10:11;85.10;;;27.45;;
29728;SDS011;20055;51.498;11.960;2022-12-10T07:12:38;70.45;;;24.20;;
29728;SDS011;20055;51.498;11.960;2022-12-10T07:15:04;90.53;;;29.48;;
29728;SDS011;20055;51.498;11.960;2022-12-10T07:17:32;88.65;;;26.65;;
29728;SDS011;20055;51.498;11.960;2022-12-10T07:19:58;91.28;;;29.58;;
29728;SDS011;20055;51.498;11.960;2022-12-10T07:22:25;77.82;;;26.83;;
29728;SDS011;20055;51.498;11.960;2022-12-10T07:24:51;77.10;;;26.17;;
29728;SDS011;20055;51.498;11.960;2022-12-10T07:27:18;72.57;;;24.25;;
29728;SDS011;20055;51.498;11.960;2022-12-10T07:29:44;69.82;;;26.63;;
29728;SDS011;20055;51.498;11.960;2022-12-10T07:32:11;77.15;;;27.05;;
29728;SDS011;20055;51.498;11.960;2022-12-10T07:34:38;68.60;;;24.45;;
29728;SDS011;20055;51.498;11.960;2022-12-10T07:37:04;73.03;;;24.58;;
29728;SDS011;20055;51.498;11.960;2022-12-10T07:39:31;75.45;;;25.30;;
29728;SDS011;20055;51.498;11.960;2022-12-10T07:41:57;72.85;;;25.98;;
29728;SDS011;20055;51.498;11.960;2022-12-10T07:44:25;73.25;;;26.48;;
29728;SDS011;20055;51.498;11.960;2022-12-10T07:46:52;76.60;;;25.42;;
29728;SDS011;20055;51.498;11.960;2022-12-10T07:49:19;70.50;;;24.33;;
29728;SDS011;20055;51.498;11.960;2022-12-10T07:51:46;71.13;;;25.52;;
29728;SDS011;20055;51.498;11.960;2022-12-10T07:54:12;78.28;;;26.10;;
29728;SDS011;20055;51.498;11.960;2022-12-10T07:56:39;71.03;;;25.55;;
29728;SDS011;20055;51.498;11.960;2022-12-10T07:59:06;73.20;;;24.75;;
29728;SDS011;20055;51.498;11.960;2022-12-10T08:01:32;69.72;;;25.88;;
29728;SDS011;20055;51.498;11.960;2022-12-10T08:03:59;71.63;;;25.55;;
29728;SDS011;20055;51.498;11.960;2022-12-10T08:06:26;69.65;;;24.98;;
29728;SDS011;20055;51.498;11.960;2022-12-10T08:08:53;78.63;;;26.92;;
29728;SDS011;20055;51.498;11.960;2022-12-10T08:11:21;71.65;;;25.55;;
29728;SDS011;20055;51.498;11.960;2022-12-10T08:13:48;68.90;;;24.98;;
29728;SDS011;20055;51.498;11.960;2022-12-10T08:16:16;70.15;;;27.00;;
29728;SDS011;20055;51.498;11.960;2022-12-10T08:18:44;67.38;;;25.75;;
29728;SDS011;20055;51.498;11.960;2022-12-10T08:21:11;67.38;;;23.10;;
29728;SDS011;20055;51.498;11.960;2022-12-10T08:23:38;75.80;;;26.00;;
29728;SDS011;20055;51.498;11.960;2022-12-10T08:26:15;69.57;;;26.27;;
29728;SDS011;20055;51.498;11.960;2022-12-10T08:28:42;74.97;;;26.02;;
29728;SDS011;20055;51.498;11.960;2022-12-10T08:31:09;71.60;;;25.80;;
29728;SDS011;20055;51.498;11.960;2022-12-10T08:33:37;76.63;;;27.73;;
29728;SDS011;20055;51.498;11.960;2022-12-10T08:36:04;64.57;;;24.92;;
29728;SDS011;20055;51.498;11.960;2022-12-10T08:38:31;67.05;;;24.70;;
29728;SDS011;20055;51.498;11.960;2022-12-10T08:40:58;64.47;;;23.52;;
29728;SDS011;20055;51.498;11.960;2022-12-10T08:43:24;70.38;;;24.60;;
29728;SDS011;20055;51.498;11.960;2022-12-10T08:45:51;71.55;;;24.83;;
29728;SDS011;20055;51.498;11.960;2022-12-10T08:48:17;63.25;;;25.92;;
29728;SDS011;20055;51.498;11.960;2022-12-10T08:50:44;68.70;;;25.27;;
29728;SDS011;20055;51.498;11.960;2022-12-10T08:53:11;74.70;;;25.98;;
29728;SDS011;20055;51.498;11.960;2022-12-10T08:55:38;77.97;;;30.98;;
29728;SDS011;20055;51.498;11.960;2022-12-10T08:58:05;79.55;;;27.00;;
29728;SDS011;20055;51.498;11.960;2022-12-10T09:00:32;69.00;;;26.58;;
29728;SDS011;20055;51.498;11.960;2022-12-10T09:02:58;74.32;;;27.55;;
29728;SDS011;20055;51.498;11.960;2022-12-10T09:05:25;72.80;;;26.60;;
29728;SDS011;20055;51.498;11.960;2022-12-10T09:07:51;66.32;;;25.83;;
29728;SDS011;20055;51.498;11.960;2022-12-10T09:10:18;73.22;;;25.65;;
29728;SDS011;20055;51.498;11.960;2022-12-10T09:12:45;80.35;;;32.30;;
29728;SDS011;20055;51.498;11.960;2022-12-10T09:15:12;75.88;;;27.98;;
29728;SDS011;20055;51.498;11.960;2022-12-10T09:17:38;64.38;;;25.10;;
29728;SDS011;20055;51.498;11.960;2022-12-10T09:20:05;69.38;;;26.23;;
29728;SDS011;20055;51.498;11.960;2022-12-10T09:22:32;64.45;;;24.80;;
29728;SDS011;20055;51.498;11.960;2022-12-10T09:25:05;92.95;;;39.50;;
29728;SDS011;20055;51.498;11.960;2022-12-10T09:27:32;67.65;;;25.90;;
29728;SDS011;20055;51.498;11.960;2022-12-10T09:29:59;71.75;;;27.95;;
29728;SDS011;20055;51.498;11.960;2022-12-10T09:32:26;73.45;;;28.52;;
29728;SDS011;20055;51.498;11.960;2022-12-10T09:34:52;71.28;;;28.80;;
29728;SDS011;20055;51.498;11.960;2022-12-10T09:37:19;77.13;;;25.17;;
29728;SDS011;20055;51.498;11.960;2022-12-10T09:39:46;73.25;;;28.73;;
29728;SDS011;20055;51.498;11.960;2022-12-10T09:47:18;81.38;;;29.15;;
29728;SDS011;20055;51.498;11.960;2022-12-10T09:52:34;67.78;;;27.27;;
29728;SDS011;20055;51.498;11.960;2022-12-10T09:55:09;68.18;;;26.67;;
29728;SDS011;20055;51.498;11.960;2022-12-10T09:57:41;82.28;;;28.52;;
29728;SDS011;20055;51.498;11.960;2022-12-10T10:00:17;76.43;;;28.70;;
29728;SDS011;20055;51.498;11.960;2022-12-10T10:02:44;76.03;;;28.10;;
29728;SDS011;20055;51.498;11.960;2022-12-10T10:05:14;76.72;;;28.38;;
29728;SDS011;20055;51.498;11.960;2022-12-10T10:07:49;74.43;;;28.13;;
29728;SDS011;20055;51.498;11.960;2022-12-10T10:10:24;68.70;;;26.55;;
29728;SDS011;20055;51.498;11.960;2022-12-10T10:12:54;78.03;;;28.48;;
29728;SDS011;20055;51.498;11.960;2022-12-10T10:15:36;69.95;;;26.60;;
29728;SDS011;20055;51.498;11.960;2022-12-10T10:18:13;79.40;;;28.98;;
29728;SDS011;20055;51.498;11.960;2022-12-10T10:20:40;78.13;;;27.83;;
29728;SDS011;20055;51.498;11.960;2022-12-10T10:23:07;77.28;;;28.65;;
29728;SDS011;20055;51.498;11.960;2022-12-10T10:25:34;110.80;;;44.60;;
29728;SDS011;20055;51.498;11.960;2022-12-10T10:28:01;76.63;;;26.83;;
29728;SDS011;20055;51.498;11.960;2022-12-10T10:30:27;83.18;;;30.33;;
29728;SDS011;20055;51.498;11.960;2022-12-10T10:32:56;160.65;;;73.70;;
29728;SDS011;20055;51.498;11.960;2022-12-10T10:35:34;82.00;;;30.25;;
29728;SDS011;20055;51.498;11.960;2022-12-10T10:38:12;83.15;;;31.88;;
29728;SDS011;20055;51.498;11.960;2022-12-10T10:40:40;78.90;;;29.60;;
29728;SDS011;20055;51.498;11.960;2022-12-10T10:43:13;81.97;;;29.83;;
29728;SDS011;20055;51.498;11.960;2022-12-10T10:45:43;73.75;;;27.58;;
29728;SDS011;20055;51.498;11.960;2022-12-10T10:48:24;75.20;;;29.17;;
29728;SDS011;20055;51.498;11.960;2022-12-10T10:53:28;77.63;;;27.33;;
29728;SDS011;20055;51.498;11.960;2022-12-10T10:55:57;73.43;;;26.92;;
29728;SDS011;20055;51.498;11.960;2022-12-10T10:58:24;72.13;;;27.52;;
29728;SDS011;20055;51.498;11.960;2022-12-10T11:00:55;87.53;;;30.38;;
29728;SDS011;20055;51.498;11.960;2022-12-10T11:03:23;70.28;;;28.40;;
29728;SDS011;20055;51.498;11.960;2022-12-10T11:05:49;75.93;;;28.77;;
29728;SDS011;20055;51.498;11.960;2022-12-10T11:08:17;84.55;;;29.83;;
29728;SDS011;20055;51.498;11.960;2022-12-10T11:11:04;79.60;;;30.42;;
29728;SDS011;20055;51.498;11.960;2022-12-10T11:13:32;77.55;;;28.40;;
29728;SDS011;20055;51.498;11.960;2022-12-10T11:23:40;80.88;;;28.75;;
29728;SDS011;20055;51.498;11.960;2022-12-10T11:34:01;71.97;;;28.30;;
29728;SDS011;20055;51.498;11.960;2022-12-10T11:36:53;77.85;;;29.55;;
29728;SDS011;20055;51.498;11.960;2022-12-10T11:42:02;78.15;;;28.13;;
29728;SDS011;20055;51.498;11.960;2022-12-10T11:54:38;77.80;;;32.55;;
29728;SDS011;20055;51.498;11.960;2022-12-10T12:00:05;86.88;;;29.92;;
29728;SDS011;20055;51.498;11.960;2022-12-10T12:05:24;91.13;;;35.85;;
29728;SDS011;20055;51.498;11.960;2022-12-10T12:10:55;82.88;;;30.10;;
29728;SDS011;20055;51.498;11.960;2022-12-10T12:13:28;84.50;;;29.48;;
29728;SDS011;20055;51.498;11.960;2022-12-10T12:18:26;75.00;;;27.95;;
29728;SDS011;20055;51.498;11.960;2022-12-10T12:20:58;76.30;;;27.88;;
29728;SDS011;20055;51.498;11.960;2022-12-10T12:25:56;82.00;;;29.02;;
29728;SDS011;20055;51.498;11.960;2022-12-10T12:28:33;85.38;;;31.60;;
29728;SDS011;20055;51.498;11.960;2022-12-10T12:31:05;83.00;;;28.23;;
29728;SDS011;20055;51.498;11.960;2022-12-10T12:33:40;82.95;;;30.25;;
29728;SDS011;20055;51.498;11.960;2022-12-10T12:38:37;73.00;;;28.15;;
29728;SDS011;20055;51.498;11.960;2022-12-10T12:46:18;74.40;;;29.15;;
29728;SDS011;20055;51.498;11.960;2022-12-10T12:48:54;76.55;;;30.08;;
29728;SDS011;20055;51.498;11.960;2022-12-10T12:53:48;76.53;;;29.15;;
29728;SDS011;20055;51.498;11.960;2022-12-10T12:56:21;73.05;;;27.77;;
29728;SDS011;20055;51.498;11.960;2022-12-10T13:04:02;80.63;;;29.60;;
29728;SDS011;20055;51.498;11.960;2022-12-10T13:06:30;77.10;;;28.77;;
29728;SDS011;20055;51.498;11.960;2022-12-10T13:17:24;78.67;;;27.90;;
29728;SDS011;20055;51.498;11.960;2022-12-10T13:24:18;90.27;;;31.10;;
29728;SDS011;20055;51.498;11.960;2022-12-10T13:29:43;87.43;;;30.00;;
29728;SDS011;20055;51.498;11.960;2022-12-10T13:32:14;87.13;;;31.17;;
29728;SDS011;20055;51.498;11.960;2022-12-10T13:34:41;99.20;;;33.28;;
29728;SDS011;20055;51.498;11.960;2022-12-10T13:37:16;79.63;;;30.25;;
29728;SDS011;20055;51.498;11.960;2022-12-10T13:39:53;81.30;;;30.80;;
29728;SDS011;20055;51.498;11.960;2022-12-10T13:42:27;84.35;;;29.92;;
29728;SDS011;20055;51.498;11.960;2022-12-10T13:47:49;80.28;;;28.38;;
29728;SDS011;20055;51.498;11.960;2022-12-10T13:55:32;73.88;;;27.83;;
29728;SDS011;20055;51.498;11.960;2022-12-10T13:58:06;74.50;;;28.35;;
29728;SDS011;20055;51.498;11.960;2022-12-10T14:00:38;80.07;;;28.33;;
29728;SDS011;20055;51.498;11.960;2022-12-10T14:03:30;80.43;;;29.77;;
29728;SDS011;20055;51.498;11.960;2022-12-10T14:06:14;82.50;;;29.25;;
29728;SDS011;20055;51.498;11.960;2022-12-10T14:08:46;84.25;;;29.80;;
29728;SDS011;20055;51.498;11.960;2022-12-10T14:11:16;77.68;;;27.85;;
29728;SDS011;20055;51.498;11.960;2022-12-10T14:13:47;82.88;;;30.88;;
29728;SDS011;20055;51.498;11.960;2022-12-10T14:16:15;79.72;;;27.58;;
29728;SDS011;20055;51.498;11.960;2022-12-10T14:18:47;69.90;;;26.42;;
29728;SDS011;20055;51.498;11.960;2022-12-10T14:21:17;72.15;;;27.48;;
29728;SDS011;20055;51.498;11.960;2022-12-10T14:23:45;79.75;;;27.73;;
29728;SDS011;20055;51.498;11.960;2022-12-10T14:26:14;70.40;;;26.27;;
29728;SDS011;20055;51.498;11.960;2022-12-10T14:28:45;86.32;;;29.30;;
29728;SDS011;20055;51.498;11.960;2022-12-10T14:31:34;81.95;;;27.90;;
29728;SDS011;20055;51.498;11.960;2022-12-10T14:34:00;78.45;;;28.67;;
29728;SDS011;20055;51.498;11.960;2022-12-10T14:36:29;72.47;;;26.88;;
29728;SDS011;20055;51.498;11.960;2022-12-10T14:38:56;80.40;;;28.45;;
29728;SDS011;20055;51.498;11.960;2022-12-10T14:41:23;73.88;;;28.70;;
29728;SDS011;20055;51.498;11.960;2022-12-10T14:43:50;73.43;;;25.70;;
29728;SDS011;20055;51.498;11.960;2022-12-10T14:46:19;68.28;;;26.15;;
29728;SDS011;20055;51.498;11.960;2022-12-10T14:48:49;77.05;;;28.23;;
29728;SDS011;20055;51.498;11.960;2022-12-10T14:51:19;73.15;;;25.77;;
29728;SDS011;20055;51.498;11.960;2022-12-10T14:53:47;77.15;;;26.15;;
29728;SDS011;20055;51.498;11.960;2022-12-10T14:56:18;69.72;;;26.65;;
29728;SDS011;20055;51.498;11.960;2022-12-10T14:58:51;72.72;;;26.17;;
29728;SDS011;20055;51.498;11.960;2022-12-10T15:01:22;74.45;;;26.63;;
29728;SDS011;20055;51.498;11.960;2022-12-10T15:03:52;71.32;;;26.38;;
29728;SDS011;20055;51.498;11.960;2022-12-10T15:06:19;79.15;;;26.35;;
29728;SDS011;20055;51.498;11.960;2022-12-10T15:08:47;73.57;;;26.77;;
29728;SDS011;20055;51.498;11.960;2022-12-10T15:11:15;78.80;;;28.65;;
29728;SDS011;20055;51.498;11.960;2022-12-10T15:13:44;76.25;;;28.08;;
29728;SDS011;20055;51.498;11.960;2022-12-10T15:16:15;67.90;;;25.80;;
29728;SDS011;20055;51.498;11.960;2022-12-10T15:18:42;67.35;;;25.27;;
29728;SDS011;20055;51.498;11.960;2022-12-10T15:21:11;73.43;;;26.73;;
29728;SDS011;20055;51.498;11.960;2022-12-10T15:23:39;73.93;;;27.15;;
29728;SDS011;20055;51.498;11.960;2022-12-10T15:26:17;71.20;;;27.55;;
29728;SDS011;20055;51.498;11.960;2022-12-10T15:28:44;75.55;;;26.15;;
29728;SDS011;20055;51.498;11.960;2022-12-10T15:33:53;71.63;;;27.67;;
29728;SDS011;20055;51.498;11.960;2022-12-10T15:36:24;71.15;;;25.75;;
29728;SDS011;20055;51.498;11.960;2022-12-10T15:38:51;70.75;;;27.10;;
29728;SDS011;20055;51.498;11.960;2022-12-10T15:41:22;74.75;;;27.40;;
29728;SDS011;20055;51.498;11.960;2022-12-10T15:43:55;75.57;;;28.05;;
29728;SDS011;20055;51.498;11.960;2022-12-10T15:46:23;73.35;;;27.15;;
29728;SDS011;20055;51.498;11.960;2022-12-10T15:48:49;66.53;;;25.38;;
29728;SDS011;20055;51.498;11.960;2022-12-10T15:51:16;76.45;;;27.05;;
29728;SDS011;20055;51.498;11.960;2022-12-10T15:53:43;73.40;;;29.02;;
29728;SDS011;20055;51.498;11.960;2022-12-10T15:56:09;78.78;;;30.42;;
29728;SDS011;20055;51.498;11.960;2022-12-10T15:58:36;77.40;;;30.70;;
29728;SDS011;20055;51.498;11.960;2022-12-10T16:01:02;78.63;;;28.65;;
29728;SDS011;20055;51.498;11.960;2022-12-10T16:03:29;83.68;;;31.58;;
29728;SDS011;20055;51.498;11.960;2022-12-10T16:05:56;73.38;;;28.55;;
29728;SDS011;20055;51.498;11.960;2022-12-10T16:08:25;71.07;;;28.08;;
29728;SDS011;20055;51.498;11.960;2022-12-10T16:10:54;88.95;;;31.88;;
29728;SDS011;20055;51.498;11.960;2022-12-10T16:13:30;77.28;;;28.65;;
29728;SDS011;20055;51.498;11.960;2022-12-10T16:16:03;94.72;;;30.88;;